Terminal Aerodrome Forecast
Issued by NWS

Home | Current Version | Previous Version | Text Only | Print | Product List | Glossary On
Versions: 1 2 3 4 5 6 7 8 9 10 11 12 13 14 15 16
831
FTUS41 KPBZ 221722
TAFAGC
TAF
KAGC 221722Z 2218/2318 32009KT P6SM BKN040
      TEMPO 2218/2221 BKN025
     FM230000 32005KT P6SM SCT060=

USA.gov is the U.S. government's official web portal to all federal, state and local government web resources and services.